Time;durP1;ratioP1;P1;durP2;ratioP2;P2;SDS_P1;SDS_P2;PMS_P1;PMS_P2;Temp;Humidity;BMP_temperature;BMP_pressure;BME280_temperature;BME280_humidity;BME280_pressure;Samples;Min_cycle;Max_cycle;Signal;HPM_P1;HPM_P2
2021/04/21 00:02:20;;;;;;;19.47;17.47;;;11.40;99.90;;;;;;5046672;28;20448;-42
2021/04/21 00:04:48;;;;;;;21.20;16.93;;;11.30;99.90;;;;;;5045638;28;20563;-41
2021/04/21 00:07:18;;;;;;;19.93;17.80;;;11.40;99.90;;;;;;5046808;28;20428;-46
2021/04/21 00:09:46;;;;;;;19.73;16.87;;;11.40;99.90;;;;;;5046159;28;20442;-40
2021/04/21 00:12:13;;;;;;;20.30;17.53;;;11.40;99.90;;;;;;5041795;28;20424;-45
2021/04/21 00:14:39;;;;;;;21.70;18.70;;;11.40;99.90;;;;;;5042173;28;20420;-42
2021/04/21 00:17:07;;;;;;;21.73;18.70;;;11.40;99.90;;;;;;5045130;28;20444;-44
2021/04/21 00:19:36;;;;;;;21.57;18.53;;;11.40;99.90;;;;;;5045980;28;20328;-42
2021/04/21 00:22:03;;;;;;;21.43;19.10;;;11.30;99.90;;;;;;5046536;28;20423;-43
2021/04/21 00:24:35;;;;;;;20.97;17.73;;;11.20;99.90;;;;;;5046390;28;20780;-45
2021/04/21 00:27:02;;;;;;;23.10;18.50;;;11.10;99.90;;;;;;5046505;28;20859;-42
2021/04/21 00:29:29;;;;;;;20.87;18.47;;;11.10;99.90;;;;;;5042666;28;20656;-42
2021/04/21 00:31:58;;;;;;;20.40;17.13;;;11.10;99.90;;;;;;5046058;28;20470;-43
2021/04/21 00:34:26;;;;;;;23.37;18.17;;;11.10;99.90;;;;;;5027819;28;20958;-42
2021/04/21 00:36:55;;;;;;;20.90;18.70;;;11.10;99.90;;;;;;5043176;28;20537;-40
2021/04/21 00:39:22;;;;;;;23.93;20.30;;;11.10;99.90;;;;;;5045144;28;20785;-43
2021/04/21 00:42:07;;;;;;;24.60;19.70;;;11.10;99.90;;;;;;5046012;28;20463;-42
2021/04/21 00:44:40;;;;;;;21.90;19.53;;;11.10;99.90;;;;;;5032996;28;20433;-41
2021/04/21 00:47:12;;;;;;;25.53;20.40;;;11.10;99.90;;;;;;5044975;28;20416;-43
2021/04/21 00:50:01;;;;;;;23.77;20.60;;;11.20;99.90;;;;;;5045334;28;20511;-42
2021/04/21 00:52:31;;;;;;;27.83;20.53;;;11.30;99.90;;;;;;5044335;28;20435;-44
2021/04/21 00:55:10;;;;;;;26.60;20.57;;;11.30;99.90;;;;;;5045753;28;20766;-43
2021/04/21 00:57:45;;;;;;;23.73;20.37;;;11.30;99.90;;;;;;5045653;28;20942;-44
2021/04/21 01:00:14;;;;;;;24.13;19.77;;;11.20;99.90;;;;;;5034912;28;20494;-41
2021/04/21 01:02:48;;;;;;;22.37;19.37;;;11.10;99.90;;;;;;5045602;28;20725;-41
2021/04/21 01:05:27;;;;;;;22.43;19.63;;;11.00;99.90;;;;;;5045926;28;20891;-43
2021/04/21 01:07:57;;;;;;;24.63;20.27;;;10.90;99.90;;;;;;5045349;28;20584;-40
2021/04/21 01:10:28;;;;;;;21.93;19.40;;;10.80;99.90;;;;;;5045172;28;20424;-40
2021/04/21 01:12:56;;;;;;;23.50;19.93;;;10.70;99.90;;;;;;5045866;28;20532;-43
2021/04/21 01:15:22;;;;;;;23.23;20.20;;;10.60;99.90;;;;;;5038067;28;20794;-42
2021/04/21 01:17:51;;;;;;;25.03;22.37;;;10.50;99.90;;;;;;5045208;28;20432;-44
2021/04/21 01:20:37;;;;;;;25.03;21.20;;;10.40;99.90;;;;;;5031856;28;20452;-41
2021/04/21 01:23:31;;;;;;;25.37;21.17;;;10.40;99.90;;;;;;5045369;28;20477;-41
2021/04/21 01:26:34;;;;;;;26.97;20.97;;;10.40;99.90;;;;;;5045658;28;20412;-44
2021/04/21 01:29:02;;;;;;;22.60;20.07;;;10.20;99.90;;;;;;5040642;28;20429;-41
2021/04/21 01:31:32;;;;;;;24.63;21.00;;;10.20;99.90;;;;;;5040916;28;20432;-43
2021/04/21 01:34:00;;;;;;;25.10;21.43;;;10.10;99.90;;;;;;5045121;28;20432;-40
2021/04/21 01:36:28;;;;;;;24.03;21.50;;;10.10;99.90;;;;;;5043823;28;20432;-40
2021/04/21 01:39:01;;;;;;;25.83;21.70;;;10.10;99.90;;;;;;5043164;28;20436;-41
2021/04/21 01:41:30;;;;;;;24.53;21.30;;;10.00;99.90;;;;;;5045251;28;20464;-41
2021/04/21 01:44:40;;;;;;;25.93;21.53;;;10.20;99.90;;;;;;5040619;28;20813;-41
2021/04/21 01:47:09;;;;;;;28.30;20.23;;;9.90;99.90;;;;;;5044727;28;20569;-43
2021/04/21 01:49:35;;;;;;;23.70;20.30;;;9.80;99.90;;;;;;5044228;28;20615;-42
2021/04/21 01:52:22;;;;;;;24.67;21.23;;;10.00;99.90;;;;;;5044940;28;20836;-42
2021/04/21 01:54:53;;;;;;;24.23;20.83;;;10.00;99.90;;;;;;5044503;28;20193;-40
2021/04/21 01:57:30;;;;;;;28.53;22.90;;;10.00;99.90;;;;;;5045199;28;20498;-41
2021/04/21 02:00:07;;;;;;;26.07;21.60;;;9.90;99.90;;;;;;5032269;28;20475;-41
2021/04/21 02:02:38;;;;;;;26.23;21.80;;;9.90;99.90;;;;;;5040696;28;20428;-43
2021/04/21 02:05:11;;;;;;;27.23;22.17;;;9.80;99.90;;;;;;5044754;28;20699;-42
2021/04/21 02:07:55;;;;;;;28.20;21.83;;;9.80;99.90;;;;;;5045547;28;20428;-41
2021/04/21 02:10:35;;;;;;;25.43;22.17;;;9.60;99.90;;;;;;5043950;28;20431;-41
2021/04/21 02:13:05;;;;;;;27.30;22.80;;;9.60;99.90;;;;;;5044949;28;20463;-42
2021/04/21 02:15:43;;;;;;;28.17;23.17;;;9.60;99.90;;;;;;5035866;28;20459;-42
2021/04/21 02:18:18;;;;;;;25.50;22.60;;;9.50;99.90;;;;;;5044486;28;20447;-42
2021/04/21 02:21:08;;;;;;;23.73;21.13;;;9.60;99.90;;;;;;5043785;28;20460;-41
2021/04/21 02:23:58;;;;;;;29.43;23.27;;;9.40;99.90;;;;;;5044991;28;20494;-41
2021/04/21 02:26:55;;;;;;;26.00;22.07;;;9.50;99.90;;;;;;5045265;28;20785;-43
2021/04/21 02:29:44;;;;;;;27.40;22.80;;;9.40;99.90;;;;;;5041097;28;20437;-41
2021/04/21 02:32:34;;;;;;;29.13;22.60;;;9.50;99.90;;;;;;5033322;28;20423;-41
2021/04/21 02:35:38;;;;;;;29.83;23.20;;;9.20;99.90;;;;;;5042137;28;20516;-40
2021/04/21 02:38:16;;;;;;;29.63;23.27;;;9.40;99.90;;;;;;5033672;28;20419;-45
2021/04/21 02:40:56;;;;;;;25.93;22.40;;;9.20;99.90;;;;;;5043766;28;20463;-40
2021/04/21 02:43:28;;;;;;;25.53;21.63;;;9.20;99.90;;;;;;5045092;28;20416;-41
2021/04/21 02:46:02;;;;;;;28.73;22.73;;;9.20;99.90;;;;;;5033693;28;20471;-43
2021/04/21 02:48:45;;;;;;;26.83;22.10;;;9.10;99.90;;;;;;5044473;28;20416;-44
2021/04/21 02:51:33;;;;;;;27.47;22.63;;;9.30;99.90;;;;;;5031128;28;20420;-42
2021/04/21 02:54:19;;;;;;;27.67;22.70;;;9.10;99.90;;;;;;5044328;28;20432;-41
2021/04/21 02:57:04;;;;;;;27.97;22.67;;;9.30;99.90;;;;;;5044634;28;20578;-41
2021/04/21 02:59:44;;;;;;;31.53;24.20;;;9.30;99.90;;;;;;5039976;28;20512;-45
2021/04/21 03:02:19;;;;;;;27.43;22.67;;;9.30;99.90;;;;;;5038821;28;20466;-40
2021/04/21 03:04:54;;;;;;;28.60;22.33;;;9.40;99.90;;;;;;5044475;28;20416;-40
2021/04/21 03:07:50;;;;;;;27.47;23.03;;;9.40;99.90;;;;;;5047791;28;20458;-41
2021/04/21 03:10:18;;;;;;;30.30;23.10;;;9.10;99.90;;;;;;5047163;28;20462;-40
2021/04/21 03:12:57;;;;;;;28.07;23.03;;;9.00;99.90;;;;;;5047330;28;20427;-45
2021/04/21 03:15:26;;;;;;;28.70;23.53;;;9.10;99.90;;;;;;5040911;28;20589;-47
2021/04/21 03:17:54;;;;;;;29.37;24.00;;;9.10;99.90;;;;;;5044899;28;20428;-44
2021/04/21 03:20:22;;;;;;;28.77;23.00;;;9.10;99.90;;;;;;5047242;28;20460;-44
2021/04/21 03:22:53;;;;;;;32.00;23.63;;;9.00;99.90;;;;;;5046348;28;20839;-43
2021/04/21 03:25:34;;;;;;;31.67;24.33;;;8.90;99.90;;;;;;5034549;28;20511;-42
2021/04/21 03:28:04;;;;;;;30.40;23.50;;;8.90;99.90;;;;;;5047559;28;20468;-43
2021/04/21 03:30:32;;;;;;;28.43;24.00;;;8.70;99.90;;;;;;5036959;28;20455;-43
2021/04/21 03:33:12;;;;;;;31.90;26.30;;;8.90;99.90;;;;;;5045232;28;20950;-45
2021/04/21 03:35:41;;;;;;;30.70;25.00;;;8.90;99.90;;;;;;5045297;28;20463;-40
2021/04/21 03:38:10;;;;;;;30.37;25.10;;;9.00;99.90;;;;;;5047337;28;20930;-40
2021/04/21 03:40:37;;;;;;;33.67;24.70;;;9.10;99.90;;;;;;5046328;28;20471;-42
2021/04/21 03:43:05;;;;;;;29.60;25.23;;;8.90;99.90;;;;;;5047413;28;20511;-42
2021/04/21 03:45:32;;;;;;;31.30;26.20;;;8.90;99.90;;;;;;5038459;28;20436;-43
2021/04/21 03:47:59;;;;;;;36.80;26.73;;;8.90;99.90;;;;;;5046906;28;20420;-44
2021/04/21 03:50:26;;;;;;;29.27;24.53;;;8.80;99.90;;;;;;5045882;28;20451;-43
2021/04/21 03:53:02;;;;;;;30.37;24.57;;;8.90;99.90;;;;;;5047051;28;20863;-45
2021/04/21 03:55:29;;;;;;;31.13;25.90;;;9.00;99.90;;;;;;5046857;28;20431;-45
2021/04/21 03:58:17;;;;;;;34.10;25.83;;;8.80;99.90;;;;;;5046992;28;20432;-44
2021/04/21 04:00:45;;;;;;;31.00;25.77;;;8.70;99.90;;;;;;5040639;28;20472;-41
2021/04/21 04:03:16;;;;;;;35.07;26.10;;;8.90;99.90;;;;;;5039941;28;20810;-44
2021/04/21 04:06:09;;;;;;;31.80;26.60;;;8.90;99.90;;;;;;5043036;28;20436;-46
2021/04/21 04:08:49;;;;;;;34.20;26.33;;;8.70;99.90;;;;;;5046732;28;20523;-44
2021/04/21 04:11:18;;;;;;;33.03;26.33;;;8.60;99.90;;;;;;5045706;28;20535;-41
2021/04/21 04:13:48;;;;;;;31.40;26.90;;;8.70;99.90;;;;;;5046838;28;20793;-47
2021/04/21 04:16:14;;;;;;;33.60;26.23;;;8.60;99.90;;;;;;5036790;28;20486;-41
2021/04/21 04:18:42;;;;;;;37.83;28.10;;;8.60;99.90;;;;;;5042618;28;20731;-41
2021/04/21 04:21:11;;;;;;;34.37;29.17;;;8.80;99.90;;;;;;5045870;28;20490;-46
2021/04/21 04:23:41;;;;;;;38.63;29.00;;;8.70;99.90;;;;;;5046179;28;20417;-42
2021/04/21 04:26:08;;;;;;;35.70;27.50;;;8.60;99.90;;;;;;5046515;28;20547;-40
2021/04/21 04:28:35;;;;;;;34.17;27.50;;;8.60;99.90;;;;;;5046508;28;20538;-42
2021/04/21 04:31:02;;;;;;;34.97;29.60;;;8.70;99.90;;;;;;5035380;28;20437;-42
2021/04/21 04:33:29;;;;;;;34.90;28.30;;;8.50;99.90;;;;;;5040193;28;20455;-42
2021/04/21 04:35:56;;;;;;;37.13;29.40;;;8.80;99.90;;;;;;5044592;28;20836;-40
2021/04/21 04:38:22;;;;;;;36.67;29.27;;;8.50;99.90;;;;;;5044468;28;20934;-40
2021/04/21 04:40:53;;;;;;;36.63;27.30;;;8.60;99.90;;;;;;5045680;28;20505;-43
2021/04/21 04:43:23;;;;;;;39.57;28.77;;;8.70;99.90;;;;;;5046625;28;20478;-42
2021/04/21 04:45:59;;;;;;;39.30;28.27;;;8.70;99.90;;;;;;5045292;28;20439;-40
2021/04/21 04:48:38;;;;;;;39.20;29.60;;;8.70;99.90;;;;;;5039827;28;20455;-43
2021/04/21 04:51:06;;;;;;;38.93;29.30;;;8.70;99.90;;;;;;5045230;28;20420;-40
2021/04/21 04:53:35;;;;;;;37.80;30.33;;;8.70;99.90;;;;;;5046497;28;20710;-40
2021/04/21 04:56:01;;;;;;;36.43;29.67;;;8.90;99.90;;;;;;5032720;28;20420;-41
2021/04/21 04:58:28;;;;;;;36.63;29.27;;;9.00;99.90;;;;;;5046416;28;20439;-41
2021/04/21 05:01:04;;;;;;;41.37;31.10;;;9.10;99.90;;;;;;5034680;28;20823;-41
2021/04/21 05:03:36;;;;;;;36.93;29.13;;;9.20;99.90;;;;;;5035903;28;20436;-41
2021/04/21 05:06:04;;;;;;;37.40;29.90;;;9.20;99.90;;;;;;5041764;28;20841;-41
2021/04/21 05:08:46;;;;;;;37.33;29.00;;;9.20;99.90;;;;;;5037563;28;20687;-43
2021/04/21 05:11:14;;;;;;;41.93;30.20;;;9.20;99.90;;;;;;5036915;28;20504;-42
2021/04/21 05:13:46;;;;;;;36.00;28.37;;;9.10;99.90;;;;;;5044725;28;20450;-41
2021/04/21 05:16:13;;;;;;;36.43;30.13;;;9.30;99.90;;;;;;5039227;28;20433;-41
2021/04/21 05:19:16;;;;;;;39.97;31.60;;;9.20;99.90;;;;;;5043305;28;20673;-44
2021/04/21 05:22:03;;;;;;;37.97;31.40;;;9.20;99.90;;;;;;5045066;28;20451;-42
2021/04/21 05:24:59;;;;;;;38.80;30.50;;;9.30;99.90;;;;;;5045132;28;20428;-41
2021/04/21 05:27:42;;;;;;;39.03;30.57;;;9.60;99.90;;;;;;5045477;28;20432;-45
2021/04/21 05:30:29;;;;;;;39.23;29.87;;;9.50;99.90;;;;;;5044915;28;20419;-44
2021/04/21 05:33:19;;;;;;;41.03;31.80;;;9.60;99.90;;;;;;5035140;28;20436;-41
2021/04/21 05:35:59;;;;;;;35.80;28.57;;;9.70;99.90;;;;;;5043637;28;20432;-40
2021/04/21 05:39:02;;;;;;;36.80;30.33;;;9.70;99.90;;;;;;5044858;28;20416;-43
2021/04/21 05:41:57;;;;;;;37.17;29.40;;;9.70;99.90;;;;;;5045251;28;20553;-42
2021/04/21 05:44:34;;;;;;;38.87;31.23;;;9.80;99.90;;;;;;5045386;28;20423;-43
2021/04/21 05:47:22;;;;;;;45.03;32.53;;;9.70;99.90;;;;;;5034920;28;20516;-40
2021/04/21 05:49:59;;;;;;;41.13;31.10;;;9.80;99.90;;;;;;5042939;28;20412;-44
2021/04/21 05:52:59;;;;;;;40.30;32.23;;;9.90;99.90;;;;;;5045055;28;20953;-42
2021/04/21 05:55:48;;;;;;;39.60;30.10;;;10.10;99.90;;;;;;5045159;28;20771;-45
2021/04/21 05:58:28;;;;;;;41.10;32.53;;;10.00;99.90;;;;;;5044265;28;20436;-42
2021/04/21 06:01:12;;;;;;;38.80;29.50;;;9.90;99.90;;;;;;5042624;28;20455;-41
2021/04/21 06:03:40;;;;;;;40.07;30.53;;;10.10;99.90;;;;;;5041357;28;20427;-41
2021/04/21 06:06:06;;;;;;;36.80;30.10;;;10.10;99.90;;;;;;5045962;28;20421;-43
2021/04/21 06:08:32;;;;;;;42.30;31.40;;;10.10;99.90;;;;;;5045094;28;20511;-43
2021/04/21 06:10:58;;;;;;;34.80;28.57;;;10.20;99.90;;;;;;5043796;28;20197;-42
2021/04/21 06:13:32;;;;;;;38.23;29.50;;;10.20;99.90;;;;;;5046095;28;20413;-48
2021/04/21 06:15:59;;;;;;;40.43;32.37;;;10.30;99.90;;;;;;5056586;28;20458;-40
2021/04/21 06:18:25;;;;;;;42.43;32.10;;;10.40;99.90;;;;;;5032517;28;20651;-44
2021/04/21 06:20:51;;;;;;;41.57;31.40;;;10.70;99.90;;;;;;5044528;28;20474;-43
2021/04/21 06:23:26;;;;;;;40.20;31.00;;;11.10;99.90;;;;;;5041926;28;21093;-44
2021/04/21 06:26:00;;;;;;;36.90;32.20;;;11.40;99.90;;;;;;5040847;28;20419;-44
2021/04/21 06:28:27;;;;;;;42.53;34.40;;;11.70;99.90;;;;;;5046072;28;20980;-42
2021/04/21 06:31:13;;;;;;;43.73;33.07;;;12.10;99.90;;;;;;5043166;28;20513;-43
2021/04/21 06:33:47;;;;;;;41.93;33.13;;;12.40;99.90;;;;;;5038693;28;20483;-41
2021/04/21 06:36:14;;;;;;;42.60;34.47;;;12.50;99.90;;;;;;5042465;28;20576;-43
2021/04/21 06:38:41;;;;;;;46.50;35.93;;;12.70;99.90;;;;;;5055541;28;20862;-40
2021/04/21 06:41:07;;;;;;;43.57;35.53;;;12.70;99.90;;;;;;5055581;28;20586;-45
2021/04/21 06:43:36;;;;;;;41.93;33.27;;;12.80;99.90;;;;;;5048880;28;20427;-43
2021/04/21 06:46:02;;;;;;;44.73;34.43;;;12.90;99.90;;;;;;5048322;28;20420;-42
2021/04/21 06:48:33;;;;;;;41.13;33.07;;;13.10;99.90;;;;;;5040704;28;20800;-41
2021/04/21 06:51:10;;;;;;;41.07;33.10;;;13.40;99.90;;;;;;5046181;28;20749;-40
2021/04/21 06:53:36;;;;;;;36.90;31.33;;;13.60;99.90;;;;;;5047906;28;20501;-44
2021/04/21 06:56:02;;;;;;;37.77;32.17;;;13.70;99.90;;;;;;5048068;28;20856;-42
2021/04/21 06:58:29;;;;;;;38.60;32.03;;;13.70;99.90;;;;;;5047649;28;20434;-42
2021/04/21 07:00:55;;;;;;;39.63;30.90;;;13.60;99.90;;;;;;5047657;28;20263;-43
2021/04/21 07:03:21;;;;;;;34.63;29.47;;;13.50;99.90;;;;;;5042639;28;20969;-42
2021/04/21 07:05:48;;;;;;;34.70;29.23;;;13.40;99.90;;;;;;5048518;28;20783;-43
2021/04/21 07:08:14;;;;;;;37.73;30.73;;;13.40;99.90;;;;;;5047476;28;20421;-41
2021/04/21 07:10:52;;;;;;;38.67;31.60;;;13.30;99.90;;;;;;5047277;28;20477;-44
2021/04/21 07:13:24;;;;;;;34.80;28.70;;;13.30;99.90;;;;;;5047895;28;20189;-45
2021/04/21 07:15:52;;;;;;;38.17;29.60;;;13.40;99.90;;;;;;5048159;28;20424;-40
2021/04/21 07:18:22;;;;;;;34.03;28.47;;;13.30;99.90;;;;;;5037221;28;20471;-41
2021/04/21 07:20:48;;;;;;;35.27;28.70;;;13.40;99.90;;;;;;5046764;28;20551;-40
2021/04/21 07:23:19;;;;;;;34.60;28.60;;;13.30;99.90;;;;;;5047871;28;20442;-42
2021/04/21 07:25:49;;;;;;;32.37;27.40;;;13.40;99.90;;;;;;5047620;28;20535;-40
2021/04/21 07:28:16;;;;;;;34.87;29.60;;;13.50;99.90;;;;;;5065369;28;20953;-41
2021/04/21 07:30:43;;;;;;;34.20;28.53;;;13.40;99.90;;;;;;5066827;28;20522;-46
2021/04/21 07:33:09;;;;;;;30.13;26.83;;;13.50;99.90;;;;;;5046049;28;20495;-43
2021/04/21 07:35:35;;;;;;;33.77;29.37;;;13.40;99.90;;;;;;5045920;28;20966;-46
2021/04/21 07:38:03;;;;;;;35.20;29.17;;;13.40;99.90;;;;;;5047344;28;20642;-41
2021/04/21 07:40:34;;;;;;;34.13;29.33;;;13.50;99.90;;;;;;5046771;28;20448;-42
2021/04/21 07:43:19;;;;;;;37.03;31.67;;;13.60;99.90;;;;;;5047086;28;20809;-40
2021/04/21 07:45:57;;;;;;;34.30;28.97;;;13.80;99.90;;;;;;5046763;28;20435;-43
2021/04/21 07:48:33;;;;;;;35.53;30.37;;;13.90;99.90;;;;;;5043603;28;20886;-43
2021/04/21 07:51:21;;;;;;;34.20;30.47;;;13.90;99.90;;;;;;5043986;28;20424;-41
2021/04/21 07:53:49;;;;;;;31.30;27.90;;;13.90;99.90;;;;;;5039154;28;20829;-45
2021/04/21 07:56:15;;;;;;;37.90;30.77;;;14.10;99.90;;;;;;5046266;28;20444;-43
2021/04/21 07:58:42;;;;;;;36.07;29.90;;;14.20;99.90;;;;;;5044835;28;20440;-43
2021/04/21 08:01:08;;;;;;;34.70;31.00;;;14.20;99.90;;;;;;5045822;28;20504;-41
2021/04/21 08:03:35;;;;;;;37.27;31.47;;;14.30;99.90;;;;;;5042621;28;20510;-44
2021/04/21 08:06:01;;;;;;;41.87;30.73;;;14.30;99.90;;;;;;5045554;28;20217;-47
2021/04/21 08:08:40;;;;;;;34.93;31.17;;;14.40;99.90;;;;;;5045528;28;20432;-42
2021/04/21 08:11:05;;;;;;;39.37;31.20;;;14.50;99.90;;;;;;5044726;28;20467;-46
2021/04/21 08:13:41;;;;;;;33.53;29.87;;;14.50;99.90;;;;;;5046597;28;20455;-44
2021/04/21 08:16:39;;;;;;;34.50;29.50;;;14.60;99.90;;;;;;5045104;28;20227;-41
2021/04/21 08:19:18;;;;;;;38.50;31.30;;;14.70;99.90;;;;;;5025788;28;20908;-41
2021/04/21 08:21:48;;;;;;;34.00;30.20;;;14.70;99.90;;;;;;5047163;28;20464;-41
2021/04/21 08:24:18;;;;;;;32.57;28.70;;;14.80;99.90;;;;;;5047222;28;20431;-43
2021/04/21 08:26:46;;;;;;;33.80;29.93;;;14.80;99.90;;;;;;5044952;28;20659;-41
2021/04/21 08:29:13;;;;;;;31.93;28.27;;;14.80;99.90;;;;;;5043886;28;20428;-44
2021/04/21 08:31:50;;;;;;;31.63;28.23;;;14.80;99.90;;;;;;5052541;28;21285;-46
2021/04/21 08:34:16;;;;;;;31.47;27.77;;;14.90;99.90;;;;;;5035567;28;20517;-41
2021/04/21 08:36:41;;;;;;;29.77;26.73;;;15.10;99.90;;;;;;5043266;28;20432;-45
2021/04/21 08:39:08;;;;;;;28.73;25.67;;;15.20;99.90;;;;;;5045557;28;20725;-41
2021/04/21 08:41:38;;;;;;;34.00;26.80;;;15.40;99.90;;;;;;5048556;28;20696;-43
2021/04/21 08:44:04;;;;;;;34.50;27.60;;;15.50;99.10;;;;;;5062179;28;20870;-42
2021/04/21 08:46:30;;;;;;;32.37;26.20;;;15.60;99.10;;;;;;5048788;28;20648;-42
2021/04/21 08:48:58;;;;;;;33.73;26.60;;;15.60;99.60;;;;;;5034536;28;20883;-40
2021/04/21 08:51:25;;;;;;;30.30;25.37;;;15.80;99.50;;;;;;5044458;28;20435;-44
2021/04/21 08:53:57;;;;;;;26.13;23.13;;;15.90;98.60;;;;;;5046282;28;20523;-45
2021/04/21 08:56:25;;;;;;;29.73;26.47;;;16.00;98.40;;;;;;5044557;28;20460;-42
2021/04/21 08:58:51;;;;;;;27.60;24.13;;;16.10;97.80;;;;;;5046448;28;20436;-44
2021/04/21 09:01:19;;;;;;;28.47;24.17;;;16.10;97.20;;;;;;5045340;28;20475;-44
2021/04/21 09:03:48;;;;;;;27.43;23.70;;;16.10;96.80;;;;;;5039254;28;20460;-44
2021/04/21 09:06:15;;;;;;;26.20;23.10;;;16.10;96.00;;;;;;5045835;28;20907;-43
2021/04/21 09:08:42;;;;;;;27.77;22.63;;;16.10;96.20;;;;;;5045872;28;20922;-44
2021/04/21 09:11:08;;;;;;;27.60;23.20;;;16.10;96.50;;;;;;5043615;28;20443;-45
2021/04/21 09:13:34;;;;;;;27.63;23.13;;;16.10;95.60;;;;;;5045462;28;20569;-42
2021/04/21 09:16:00;;;;;;;28.03;20.97;;;16.20;96.30;;;;;;5044323;28;20519;-45
2021/04/21 09:18:30;;;;;;;24.27;20.60;;;16.20;95.00;;;;;;5040000;28;20207;-46
2021/04/21 09:20:57;;;;;;;29.60;22.70;;;16.30;95.20;;;;;;5037865;28;20286;-45
2021/04/21 09:23:24;;;;;;;29.03;18.90;;;16.50;93.40;;;;;;5045160;28;20946;-44
2021/04/21 09:25:54;;;;;;;20.83;18.63;;;16.50;93.40;;;;;;5045361;28;20943;-47
2021/04/21 09:28:22;;;;;;;19.40;16.03;;;16.60;93.70;;;;;;5045056;28;20431;-42
2021/04/21 09:30:56;;;;;;;19.67;16.30;;;16.70;93.30;;;;;;5044876;28;20511;-43
2021/04/21 09:33:26;;;;;;;20.80;15.07;;;16.90;93.60;;;;;;5041519;28;20718;-42
2021/04/21 09:35:52;;;;;;;16.60;11.20;;;17.10;92.10;;;;;;5040517;28;20693;-45
2021/04/21 09:38:22;;;;;;;13.80;11.53;;;17.10;84.60;;;;;;5045361;28;20428;-42
2021/04/21 09:40:52;;;;;;;13.47;11.67;;;17.20;85.80;;;;;;5044769;28;20220;-42
2021/04/21 09:43:23;;;;;;;15.27;11.27;;;17.20;85.80;;;;;;5045034;28;20497;-45
2021/04/21 09:45:55;;;;;;;12.40;11.03;;;17.20;86.00;;;;;;5045312;28;20469;-42
2021/04/21 09:48:37;;;;;;;14.07;11.63;;;17.20;86.50;;;;;;5050857;28;20419;-42
2021/04/21 09:51:06;;;;;;;13.20;11.83;;;17.20;84.70;;;;;;5038963;28;20519;-41
2021/04/21 09:53:46;;;;;;;14.30;12.47;;;17.20;83.10;;;;;;5044071;28;20481;-46
2021/04/21 09:56:14;;;;;;;13.50;11.37;;;17.10;84.00;;;;;;5040675;28;20432;-42
2021/04/21 09:58:45;;;;;;;15.87;12.27;;;17.20;85.70;;;;;;5040607;28;20425;-42
2021/04/21 10:01:22;;;;;;;15.10;12.20;;;17.30;85.10;;;;;;5044051;28;20893;-43
2021/04/21 10:04:19;;;;;;;13.87;11.57;;;17.50;87.10;;;;;;5040103;28;20437;-42
2021/04/21 10:06:50;;;;;;;13.40;11.50;;;17.70;84.10;;;;;;5041257;28;20443;-44
2021/04/21 10:09:30;;;;;;;12.50;11.30;;;18.00;83.50;;;;;;5039017;28;20424;-42
2021/04/21 10:12:13;;;;;;;15.00;13.27;;;18.10;84.50;;;;;;5044930;28;20420;-41
2021/04/21 10:14:39;;;;;;;15.17;12.23;;;18.10;81.40;;;;;;5046475;28;20424;-44
2021/04/21 10:17:05;;;;;;;12.53;11.37;;;18.00;80.50;;;;;;5049054;28;20432;-43
2021/04/21 10:19:33;;;;;;;14.10;11.60;;;18.00;79.70;;;;;;5038675;28;20722;-49
2021/04/21 10:21:59;;;;;;;11.37;10.20;;;18.10;78.80;;;;;;5048152;28;20468;-44
2021/04/21 10:24:26;;;;;;;12.00;10.70;;;18.10;79.90;;;;;;5048892;28;20434;-43
2021/04/21 10:26:53;;;;;;;12.87;10.53;;;18.10;78.50;;;;;;5048718;28;20420;-43
2021/04/21 10:29:20;;;;;;;11.97;10.13;;;18.10;78.10;;;;;;5046870;28;20438;-41
2021/04/21 10:31:46;;;;;;;11.57;10.40;;;18.10;79.30;;;;;;5047401;28;20470;-41
2021/04/21 10:34:13;;;;;;;10.83;9.73;;;18.10;77.80;;;;;;5041733;28;20878;-46
2021/04/21 10:36:41;;;;;;;10.23;8.53;;;18.20;77.30;;;;;;5042665;28;20277;-41
2021/04/21 10:39:07;;;;;;;12.53;10.73;;;18.30;78.00;;;;;;5046489;28;20428;-44
2021/04/21 10:41:39;;;;;;;10.40;9.40;;;18.30;73.60;;;;;;5048536;28;20893;-45
2021/04/21 10:44:23;;;;;;;11.70;10.50;;;18.40;76.60;;;;;;5047273;28;20646;-48
2021/04/21 10:46:55;;;;;;;10.43;9.40;;;18.50;77.30;;;;;;5047167;28;20428;-46
2021/04/21 10:50:06;;;;;;;11.17;9.00;;;18.60;77.60;;;;;;5039917;28;20714;-42
2021/04/21 10:52:39;;;;;;;11.33;10.33;;;18.70;76.00;;;;;;5057846;28;20463;-42
2021/04/21 10:55:12;;;;;;;12.17;9.70;;;18.70;73.40;;;;;;5042911;28;20474;-45
2021/04/21 10:57:43;;;;;;;12.43;11.07;;;18.70;74.20;;;;;;5048338;28;20494;-45
2021/04/21 11:00:17;;;;;;;10.60;9.60;;;18.60;73.50;;;;;;5047642;28;20554;-45
2021/04/21 11:03:05;;;;;;;12.10;10.90;;;18.80;74.50;;;;;;5048385;28;20423;-44
2021/04/21 11:05:40;;;;;;;14.23;11.17;;;18.80;70.30;;;;;;5038422;28;20427;-45
2021/04/21 11:08:15;;;;;;;13.90;12.60;;;18.80;71.10;;;;;;5046515;28;20489;-46
2021/04/21 11:11:05;;;;;;;12.27;10.97;;;18.70;67.80;;;;;;5045921;28;20448;-42
2021/04/21 11:13:45;;;;;;;12.83;10.60;;;18.70;72.10;;;;;;5047462;28;20497;-42
2021/04/21 11:16:29;;;;;;;12.00;10.63;;;18.70;73.30;;;;;;5047728;28;20420;-41
2021/04/21 11:19:15;;;;;;;12.03;10.73;;;18.70;73.20;;;;;;5046069;28;20431;-42
2021/04/21 11:21:40;;;;;;;11.90;10.67;;;18.70;74.10;;;;;;5039787;28;20479;-43
2021/04/21 11:24:06;;;;;;;13.70;11.10;;;18.70;74.20;;;;;;5048257;28;20554;-45
2021/04/21 11:26:42;;;;;;;12.33;11.13;;;18.60;72.90;;;;;;5046346;28;20432;-43
2021/04/21 11:29:13;;;;;;;11.53;10.43;;;18.30;72.00;;;;;;5047368;28;20419;-42
2021/04/21 11:31:45;;;;;;;11.87;10.67;;;18.20;73.00;;;;;;5047423;28;20493;-43
2021/04/21 11:34:14;;;;;;;11.80;10.67;;;18.10;74.70;;;;;;5044683;28;20934;-41
2021/04/21 11:36:51;;;;;;;18.40;11.27;;;18.00;73.30;;;;;;5052063;28;20428;-43
2021/04/21 11:39:46;;;;;;;11.40;10.00;;;17.80;75.20;;;;;;5040804;28;20451;-46
2021/04/21 11:42:32;;;;;;;12.63;11.00;;;17.80;75.20;;;;;;5047209;28;20934;-46
2021/04/21 11:45:07;;;;;;;12.70;9.70;;;17.70;74.80;;;;;;5047574;28;20770;-45
2021/04/21 11:47:42;;;;;;;12.30;9.93;;;17.70;76.10;;;;;;5050718;28;20422;-44
2021/04/21 11:50:18;;;;;;;11.33;10.23;;;17.70;74.60;;;;;;5052059;28;20545;-41
2021/04/21 11:52:51;;;;;;;11.40;10.20;;;17.80;75.00;;;;;;5045079;28;20507;-41
2021/04/21 11:55:59;;;;;;;12.37;9.83;;;17.90;74.50;;;;;;5043022;28;20415;-47
2021/04/21 11:58:30;;;;;;;13.90;10.33;;;17.90;72.10;;;;;;5051558;28;20428;-44
2021/04/21 12:00:59;;;;;;;11.30;10.20;;;17.90;72.80;;;;;;5041593;28;20811;-44
2021/04/21 12:03:30;;;;;;;10.90;9.80;;;17.80;71.10;;;;;;5054776;28;20415;-43
2021/04/21 12:06:02;;;;;;;12.00;10.33;;;17.90;72.80;;;;;;5043476;28;20500;-41
2021/04/21 12:08:37;;;;;;;11.90;10.70;;;17.90;73.70;;;;;;5046828;28;20428;-43
2021/04/21 12:11:04;;;;;;;11.57;10.13;;;18.00;71.70;;;;;;5044932;28;20462;-41
2021/04/21 12:13:35;;;;;;;10.67;9.57;;;17.90;70.50;;;;;;5046395;28;20424;-43
2021/04/21 12:16:07;;;;;;;11.03;9.67;;;18.00;71.90;;;;;;5046927;28;20464;-42
2021/04/21 12:18:34;;;;;;;10.87;9.40;;;18.10;74.40;;;;;;5045321;28;20424;-46
2021/04/21 12:21:02;;;;;;;10.27;9.30;;;18.10;74.70;;;;;;5036142;28;20534;-45
2021/04/21 12:23:34;;;;;;;13.27;11.03;;;18.20;72.80;;;;;;5046045;28;20477;-42
2021/04/21 12:26:03;;;;;;;13.47;11.47;;;18.30;72.60;;;;;;5047643;28;20764;-44
2021/04/21 12:28:42;;;;;;;14.57;12.03;;;18.40;72.80;;;;;;5045777;28;20417;-49
2021/04/21 12:31:08;;;;;;;12.10;10.90;;;18.40;74.50;;;;;;5023652;28;20506;-43
2021/04/21 12:33:34;;;;;;;13.43;12.10;;;18.40;73.00;;;;;;5046159;28;20543;-44
2021/04/21 12:36:00;;;;;;;14.47;12.97;;;18.50;73.80;;;;;;5039160;28;20554;-43
2021/04/21 12:38:28;;;;;;;13.37;12.03;;;18.50;71.80;;;;;;5045563;28;20432;-45
2021/04/21 12:40:55;;;;;;;14.97;13.40;;;18.70;72.20;;;;;;5043725;28;20684;-43
2021/04/21 12:43:24;;;;;;;14.03;12.63;;;18.80;72.30;;;;;;5045861;28;20416;-44
2021/04/21 12:45:51;;;;;;;15.10;13.50;;;19.00;72.60;;;;;;5042565;28;20440;-43
2021/04/21 12:48:23;;;;;;;13.97;11.93;;;19.00;70.60;;;;;;5045202;28;20788;-41
2021/04/21 12:50:51;;;;;;;14.27;12.77;;;19.00;70.60;;;;;;5043048;28;20199;-45
2021/04/21 12:53:18;;;;;;;14.07;12.67;;;19.00;72.10;;;;;;5044204;28;20408;-41
2021/04/21 12:55:46;;;;;;;15.03;13.40;;;18.90;72.70;;;;;;5045708;28;20421;-45
2021/04/21 12:58:13;;;;;;;16.80;14.83;;;19.00;72.50;;;;;;5045720;28;20955;-46
2021/04/21 13:00:39;;;;;;;19.10;17.13;;;19.00;73.70;;;;;;5050521;28;20462;-42
2021/04/21 13:03:16;;;;;;;18.77;16.87;;;19.20;74.70;;;;;;5065981;28;20502;-46